createdAt,value
2023-05-09T00:04:21.046Z,100.00
2023-05-09T00:09:25.112Z,100.00
2023-05-09T00:14:30.612Z,100.00
2023-05-09T00:19:35.091Z,100.00
2023-05-09T00:24:39.310Z,100.00
2023-05-09T00:29:45.288Z,100.00
2023-05-09T00:34:49.483Z,100.00
2023-05-09T00:39:53.705Z,100.00
2023-05-09T00:44:59.368Z,100.00
2023-05-09T00:50:03.947Z,100.00
2023-05-09T00:55:09.280Z,100.00
2023-05-09T01:00:16.706Z,100.00
2023-05-09T01:05:21.557Z,100.00
2023-05-09T01:10:32.738Z,100.00
2023-05-09T01:15:42.049Z,100.00
2023-05-09T01:20:48.594Z,100.00
2023-05-09T01:25:58.772Z,100.00
2023-05-09T01:31:05.404Z,100.00
2023-05-09T01:36:15.140Z,100.00
2023-05-09T01:41:20.838Z,100.00
2023-05-09T01:46:26.834Z,100.00
2023-05-09T01:51:32.708Z,100.00
2023-05-09T01:56:37.788Z,100.00
2023-05-09T02:01:43.581Z,100.00
2023-05-09T02:06:50.681Z,100.00
2023-05-09T02:11:55.631Z,100.00
2023-05-09T02:17:06.264Z,100.00
2023-05-09T02:22:10.772Z,100.00
2023-05-09T02:27:16.025Z,100.00
2023-05-09T02:32:24.427Z,100.00
2023-05-09T02:37:29.124Z,100.00
2023-05-09T02:42:32.985Z,100.00
2023-05-09T02:47:39.240Z,100.00
2023-05-09T02:52:43.448Z,100.00
2023-05-09T02:57:47.286Z,100.00
2023-05-09T03:02:53.106Z,100.00
2023-05-09T03:07:57.087Z,100.00
2023-05-09T03:13:01.303Z,100.00
2023-05-09T03:18:07.084Z,100.00
2023-05-09T03:23:11.204Z,100.00
2023-05-09T03:28:15.445Z,100.00
2023-05-09T03:33:21.818Z,100.00
2023-05-09T03:38:25.986Z,100.00
2023-05-09T03:43:30.257Z,100.00
2023-05-09T03:48:36.299Z,100.00
2023-05-09T03:53:40.776Z,100.00
2023-05-09T03:58:46.421Z,100.00
2023-05-09T04:03:53.134Z,100.00
2023-05-09T04:08:58.687Z,100.00
2023-05-09T04:14:07.333Z,100.00
2023-05-09T04:19:14.800Z,100.00
2023-05-09T04:24:18.881Z,100.00
2023-05-09T04:29:25.128Z,100.00
2023-05-09T04:34:34.091Z,100.00
2023-05-09T04:39:44.234Z,100.00
2023-05-09T04:44:55.244Z,100.00
2023-05-09T04:50:01.312Z,100.00
2023-05-09T04:55:06.291Z,100.00
2023-05-09T05:00:16.788Z,100.00
2023-05-09T05:05:25.354Z,100.00
2023-05-09T05:10:31.359Z,100.00
2023-05-09T05:15:43.804Z,100.00
2023-05-09T05:20:49.356Z,100.00
2023-05-09T05:25:53.986Z,100.00
2023-05-09T05:30:57.915Z,100.00
2023-05-09T05:36:03.618Z,100.00
2023-05-09T05:41:11.217Z,100.00
2023-05-09T05:46:17.312Z,100.00
2023-05-09T05:51:23.044Z,100.00
2023-05-09T05:56:27.228Z,100.00
2023-05-09T06:01:32.986Z,100.00
2023-05-09T06:06:38.517Z,96.31
2023-05-09T06:11:42.461Z,93.15
2023-05-09T06:16:46.602Z,86.37
2023-05-09T06:21:52.771Z,88.13
2023-05-09T06:26:57.801Z,83.35
2023-05-09T06:32:02.043Z,85.43
2023-05-09T06:37:08.308Z,78.06
2023-05-09T06:42:12.254Z,79.32
2023-05-09T06:47:16.741Z,80.96
2023-05-09T06:52:22.490Z,76.73
2023-05-09T06:57:26.762Z,74.87
2023-05-09T07:02:30.796Z,74.94
2023-05-09T07:07:36.186Z,74.42
2023-05-09T07:12:40.046Z,73.71
2023-05-09T07:17:43.980Z,72.43
2023-05-09T07:22:49.387Z,71.15
2023-05-09T07:27:53.634Z,67.87
2023-05-09T07:32:57.912Z,67.98
2023-05-09T07:38:03.456Z,63.40
2023-05-09T07:43:07.261Z,64.15
2023-05-09T07:48:11.691Z,62.43
2023-05-09T07:53:16.918Z,61.14
2023-05-09T07:58:21.146Z,61.54
2023-05-09T08:03:25.582Z,61.01
2023-05-09T08:08:30.820Z,59.34
2023-05-09T08:13:34.870Z,59.10
2023-05-09T08:18:38.805Z,57.60
2023-05-09T08:23:43.954Z,56.04
2023-05-09T08:28:47.968Z,57.67
2023-05-09T08:33:52.001Z,57.83
2023-05-09T08:38:58.037Z,56.78
2023-05-09T08:44:01.878Z,56.53
2023-05-09T08:49:07.054Z,54.52
2023-05-09T08:54:12.979Z,55.95
2023-05-09T08:59:18.064Z,56.48
2023-05-09T09:04:23.369Z,54.17
2023-05-09T09:09:29.182Z,53.20
2023-05-09T09:14:35.822Z,52.52
2023-05-09T09:19:41.888Z,52.10
2023-05-09T09:24:47.413Z,52.90
2023-05-09T09:29:51.540Z,51.80
2023-05-09T09:35:07.070Z,51.48
2023-05-09T09:40:14.586Z,50.23
2023-05-09T09:45:19.579Z,49.05
2023-05-09T09:50:25.426Z,48.73
2023-05-09T09:55:30.925Z,50.43
2023-05-09T10:00:35.063Z,48.00
2023-05-09T10:05:40.964Z,47.03
2023-05-09T10:10:46.177Z,47.01
2023-05-09T10:15:53.894Z,47.31
2023-05-09T10:21:01.965Z,47.92
2023-05-09T10:26:13.525Z,47.22
2023-05-09T10:31:22.701Z,46.25
2023-05-09T10:36:26.601Z,45.36
2023-05-09T10:41:32.750Z,46.06
2023-05-09T10:46:37.043Z,46.65
2023-05-09T10:51:41.993Z,46.51
2023-05-09T10:56:47.158Z,45.98
2023-05-09T11:02:01.189Z,47.00
2023-05-09T11:07:20.952Z,47.38
2023-05-09T11:12:26.322Z,46.78
2023-05-09T11:17:32.170Z,45.45
2023-05-09T11:22:41.635Z,47.27
2023-05-09T11:27:48.565Z,47.10
2023-05-09T11:32:53.857Z,45.86
2023-05-09T11:38:02.002Z,47.26
2023-05-09T11:43:09.283Z,44.60
2023-05-09T11:48:13.377Z,45.11
2023-05-09T11:53:17.573Z,45.24
2023-05-09T11:58:23.293Z,43.24
2023-05-09T12:03:27.487Z,44.27
2023-05-09T12:08:31.418Z,43.16
2023-05-09T12:13:36.934Z,45.12
2023-05-09T12:18:45.643Z,41.85
2023-05-09T12:23:51.644Z,43.29
2023-05-09T12:28:58.601Z,43.42
2023-05-09T12:34:02.833Z,41.07
2023-05-09T12:39:10.554Z,41.41
2023-05-09T12:44:25.935Z,41.49
2023-05-09T12:49:30.887Z,42.22
2023-05-09T12:54:34.773Z,42.46
2023-05-09T12:59:45.065Z,39.07
2023-05-09T13:04:48.879Z,39.30
2023-05-09T13:09:57.536Z,38.86
2023-05-09T13:15:03.298Z,38.18
2023-05-09T13:20:09.228Z,38.79
2023-05-09T13:25:13.586Z,38.00
2023-05-09T13:30:20.134Z,38.88
2023-05-09T13:35:24.683Z,38.99
2023-05-09T13:40:28.604Z,38.24
2023-05-09T13:45:34.403Z,38.01
2023-05-09T13:50:38.482Z,38.86
2023-05-09T13:55:42.779Z,37.50
2023-05-09T14:00:48.025Z,36.75
2023-05-09T14:05:52.541Z,37.75
2023-05-09T14:10:56.425Z,38.49
2023-05-09T14:16:02.414Z,39.32
2023-05-09T14:21:07.607Z,38.64
2023-05-09T14:26:11.537Z,36.89
2023-05-09T14:31:17.622Z,36.95
2023-05-09T14:36:21.818Z,37.57
2023-05-09T14:41:26.291Z,37.23
2023-05-09T14:46:31.586Z,36.88
2023-05-09T14:51:35.465Z,37.65
2023-05-09T14:56:39.632Z,36.96
2023-05-09T15:01:45.645Z,36.96
2023-05-09T15:06:49.906Z,36.78
2023-05-09T15:11:54.799Z,37.27
2023-05-09T15:17:03.322Z,37.12
2023-05-09T15:22:08.610Z,36.86
2023-05-09T15:27:12.856Z,36.41
2023-05-09T15:32:18.649Z,36.72
2023-05-09T15:37:22.923Z,37.87
2023-05-09T15:42:27.294Z,38.37
2023-05-09T15:47:33.317Z,40.25
2023-05-09T15:52:37.540Z,41.57
2023-05-09T15:57:41.949Z,42.69
2023-05-09T16:02:47.515Z,42.81
2023-05-09T16:07:53.424Z,44.35
2023-05-09T16:12:57.395Z,45.08
2023-05-09T16:18:03.085Z,44.07
2023-05-09T16:23:07.125Z,45.01
2023-05-09T16:28:11.389Z,46.04
2023-05-09T16:33:17.122Z,46.08
2023-05-09T16:38:21.142Z,47.12
2023-05-09T16:43:25.373Z,46.39
2023-05-09T16:48:31.226Z,46.60
2023-05-09T16:53:36.486Z,46.85
2023-05-09T16:58:40.647Z,47.34
2023-05-09T17:03:45.966Z,47.51
2023-05-09T17:08:50.247Z,47.72
2023-05-09T17:13:54.317Z,47.37
2023-05-09T17:18:59.862Z,48.52
2023-05-09T17:24:04.074Z,48.83
2023-05-09T17:29:08.280Z,49.37
2023-05-09T17:34:13.491Z,49.88
2023-05-09T17:39:17.943Z,50.36
2023-05-09T17:44:21.827Z,49.86
2023-05-09T17:49:28.047Z,50.63
2023-05-09T17:54:32.195Z,50.99
2023-05-09T17:59:40.359Z,51.40
2023-05-09T18:04:46.351Z,51.86
2023-05-09T18:09:50.398Z,52.21
2023-05-09T18:14:55.382Z,52.62
2023-05-09T18:20:00.910Z,53.38
2023-05-09T18:25:05.517Z,54.10
2023-05-09T18:30:10.608Z,55.03
2023-05-09T18:35:16.033Z,56.42
2023-05-09T18:40:20.093Z,56.73
2023-05-09T18:45:23.960Z,57.01
2023-05-09T18:50:30.509Z,58.14
2023-05-09T18:55:34.811Z,58.62
2023-05-09T19:00:40.092Z,59.32
2023-05-09T19:05:46.880Z,60.62
2023-05-09T19:10:50.956Z,60.61
2023-05-09T19:15:54.738Z,61.19
2023-05-09T19:21:00.190Z,61.69
2023-05-09T19:26:04.165Z,61.92
2023-05-09T19:31:09.049Z,64.01
2023-05-09T19:36:14.634Z,63.88
2023-05-09T19:41:18.644Z,64.34
2023-05-09T19:46:23.082Z,64.25
2023-05-09T19:51:29.603Z,64.93
2023-05-09T19:56:34.697Z,65.60
2023-05-09T20:01:38.602Z,64.66
2023-05-09T20:06:45.215Z,64.94
2023-05-09T20:11:49.371Z,65.35
2023-05-09T20:16:53.430Z,66.36
2023-05-09T20:21:58.903Z,66.15
2023-05-09T20:27:03.314Z,66.77
2023-05-09T20:32:07.433Z,66.37
2023-05-09T20:37:13.011Z,67.66
2023-05-09T20:42:17.495Z,67.25
2023-05-09T20:47:21.945Z,67.76
2023-05-09T20:52:27.686Z,67.90
2023-05-09T20:57:31.854Z,68.39
2023-05-09T21:02:36.226Z,68.86
2023-05-09T21:07:41.728Z,68.13
2023-05-09T21:12:45.765Z,68.25
2023-05-09T21:17:49.631Z,69.86
2023-05-09T21:22:55.131Z,68.52
2023-05-09T21:27:59.189Z,69.91
2023-05-09T21:33:03.785Z,70.25
2023-05-09T21:38:09.063Z,69.65
2023-05-09T21:43:13.089Z,68.13
2023-05-09T21:48:17.107Z,67.65
2023-05-09T21:53:23.537Z,68.88
2023-05-09T21:58:27.772Z,68.98
2023-05-09T22:03:31.964Z,66.38
2023-05-09T22:08:37.149Z,65.51
2023-05-09T22:13:41.157Z,63.67
2023-05-09T22:18:45.357Z,62.93
2023-05-09T22:23:50.640Z,62.33
2023-05-09T22:28:54.643Z,61.99
2023-05-09T22:33:58.657Z,62.36
2023-05-09T22:39:04.390Z,62.83
2023-05-09T22:44:08.442Z,61.94
2023-05-09T22:49:12.853Z,63.26
2023-05-09T22:54:21.254Z,62.92
2023-05-09T22:59:25.354Z,63.15
2023-05-09T23:04:29.585Z,63.63
2023-05-09T23:09:35.442Z,64.88
2023-05-09T23:14:39.420Z,65.58
2023-05-09T23:19:43.290Z,66.96
2023-05-09T23:24:48.759Z,67.22
2023-05-09T23:29:52.829Z,67.79
2023-05-09T23:34:56.639Z,68.95
2023-05-09T23:40:02.042Z,70.13
2023-05-09T23:45:07.200Z,70.44
2023-05-09T23:50:12.434Z,73.53
2023-05-09T23:55:18.846Z,74.17
